Time;durP1;ratioP1;P1;durP2;ratioP2;P2;SDS_P1;SDS_P2;PMS_P1;PMS_P2;Temp;Humidity;BMP_temperature;BMP_pressure;BME280_temperature;BME280_humidity;BME280_pressure;Samples;Min_cycle;Max_cycle;Signal;HPM_P1;HPM_P2
2021/01/27 11:13:11;;;;;;;4.73;2.73;;;5.60;99.90;;;;;;5074334;22;20236;-71
2021/01/27 11:15:37;;;;;;;4.77;2.80;;;5.70;99.90;;;;;;5053294;28;20204;-74
2021/01/27 11:18:04;;;;;;;5.30;2.93;;;5.70;99.90;;;;;;5038257;28;20211;-78
2021/01/27 11:20:30;;;;;;;5.77;2.90;;;5.90;99.90;;;;;;5039274;28;20777;-74
2021/01/27 11:22:56;;;;;;;4.87;2.30;;;5.90;99.90;;;;;;5041425;28;20205;-75
2021/01/27 11:25:24;;;;;;;5.57;2.80;;;5.80;99.90;;;;;;5042479;28;20572;-73
2021/01/27 11:27:51;;;;;;;4.93;2.63;;;5.80;99.90;;;;;;5034621;28;20205;-74
2021/01/27 11:30:21;;;;;;;4.97;2.73;;;5.90;99.90;;;;;;5042465;28;20224;-72
2021/01/27 11:32:48;;;;;;;4.67;2.90;;;5.90;99.90;;;;;;5052805;28;20246;-70
2021/01/27 11:35:15;;;;;;;6.20;2.67;;;6.00;99.90;;;;;;5052490;28;20204;-73
2021/01/27 11:37:41;;;;;;;5.60;2.80;;;6.00;99.90;;;;;;5052991;28;20204;-69
2021/01/27 11:40:09;;;;;;;4.47;2.73;;;6.10;99.90;;;;;;5052769;28;20235;-69
2021/01/27 11:42:35;;;;;;;4.50;2.63;;;6.20;99.90;;;;;;5052840;28;20650;-69
2021/01/27 11:45:03;;;;;;;3.47;2.57;;;6.30;99.90;;;;;;5052032;28;20229;-69
2021/01/27 11:47:30;;;;;;;5.80;2.73;;;6.20;99.90;;;;;;5052680;28;20215;-74
2021/01/27 11:49:56;;;;;;;6.33;2.87;;;6.20;99.90;;;;;;5052926;28;20231;-70
2021/01/27 11:52:22;;;;;;;4.53;2.57;;;6.30;99.90;;;;;;5052763;28;20231;-69
2021/01/27 11:54:50;;;;;;;5.00;2.57;;;6.30;99.90;;;;;;5052609;28;20212;-69
2021/01/27 11:57:16;;;;;;;4.97;2.50;;;6.40;99.90;;;;;;5033123;28;20267;-69
2021/01/27 11:59:42;;;;;;;4.83;2.77;;;6.30;99.90;;;;;;5024975;28;20591;-69
2021/01/27 12:02:09;;;;;;;4.20;2.13;;;6.20;99.90;;;;;;5021231;28;20206;-69
2021/01/27 12:04:36;;;;;;;5.33;2.70;;;6.40;99.90;;;;;;5028460;28;20205;-69
2021/01/27 12:07:04;;;;;;;5.07;2.30;;;6.50;99.90;;;;;;5028092;28;20565;-69
2021/01/27 12:09:30;;;;;;;6.33;2.30;;;6.50;99.90;;;;;;5022341;28;20731;-70
2021/01/27 12:11:57;;;;;;;5.10;2.90;;;6.40;99.90;;;;;;5028201;28;20311;-70
2021/01/27 12:14:23;;;;;;;4.93;2.63;;;6.40;99.90;;;;;;5023744;28;20217;-69
2021/01/27 12:16:50;;;;;;;5.20;2.60;;;6.40;99.90;;;;;;5029213;28;20202;-69
2021/01/27 12:19:17;;;;;;;5.43;2.20;;;6.50;99.90;;;;;;5025863;28;20698;-69
2021/01/27 12:21:44;;;;;;;3.77;2.17;;;6.50;99.90;;;;;;5024126;28;20263;-68
2021/01/27 12:24:10;;;;;;;3.93;2.43;;;6.40;99.90;;;;;;5018228;28;20212;-68
2021/01/27 12:26:37;;;;;;;6.57;2.43;;;6.50;99.90;;;;;;5023100;28;20209;-69
2021/01/27 12:29:04;;;;;;;5.83;2.70;;;6.60;99.90;;;;;;5027438;28;20201;-69
2021/01/27 12:31:30;;;;;;;5.23;2.97;;;6.70;99.90;;;;;;5023821;28;20252;-69
2021/01/27 12:33:56;;;;;;;6.10;2.80;;;6.80;99.90;;;;;;5024511;28;20220;-69
2021/01/27 12:36:23;;;;;;;6.23;2.60;;;6.70;99.90;;;;;;5017927;28;20209;-70
2021/01/27 12:38:50;;;;;;;6.20;2.93;;;6.70;99.90;;;;;;5028196;28;20211;-71
2021/01/27 12:41:17;;;;;;;6.70;3.10;;;6.70;99.90;;;;;;5031093;28;20263;-70
2021/01/27 12:43:44;;;;;;;5.93;3.00;;;6.80;99.90;;;;;;5019451;28;20206;-69
2021/01/27 12:46:10;;;;;;;4.73;2.43;;;7.00;99.90;;;;;;5019728;28;20451;-70
2021/01/27 12:48:36;;;;;;;6.63;2.97;;;7.00;99.90;;;;;;5022186;28;20210;-70
2021/01/27 12:51:03;;;;;;;8.17;3.03;;;6.90;99.90;;;;;;5027182;28;20246;-69
2021/01/27 12:53:29;;;;;;;6.43;3.03;;;6.90;99.90;;;;;;5027937;28;20209;-78
2021/01/27 12:55:56;;;;;;;6.43;2.70;;;6.90;99.90;;;;;;5023056;28;20247;-79
2021/01/27 12:58:23;;;;;;;6.47;3.23;;;6.80;99.90;;;;;;5024455;28;20224;-69
2021/01/27 13:00:50;;;;;;;5.73;3.30;;;6.80;99.90;;;;;;5028984;28;20272;-74
2021/01/27 13:03:17;;;;;;;7.63;3.40;;;6.90;99.90;;;;;;5031843;28;20209;-69
2021/01/27 13:05:43;;;;;;;7.10;3.10;;;7.00;99.90;;;;;;5027338;28;20205;-70
2021/01/27 13:08:10;;;;;;;9.20;3.87;;;6.90;99.90;;;;;;5026210;28;20211;-70
2021/01/27 13:10:41;;;;;;;8.33;3.87;;;7.00;99.90;;;;;;5026017;28;20238;-70
2021/01/27 13:13:09;;;;;;;7.20;3.60;;;7.00;99.90;;;;;;5029629;28;20698;-70
2021/01/27 13:15:35;;;;;;;9.60;3.47;;;7.10;99.90;;;;;;5032896;28;20216;-70
2021/01/27 13:18:01;;;;;;;7.27;3.80;;;7.20;99.90;;;;;;5027818;28;20201;-70
2021/01/27 13:20:27;;;;;;;8.63;3.40;;;7.30;99.90;;;;;;5028832;28;20232;-74
2021/01/27 13:22:54;;;;;;;8.30;3.87;;;7.40;99.90;;;;;;5028764;28;20209;-75
2021/01/27 13:25:22;;;;;;;7.97;3.93;;;7.40;99.90;;;;;;5025713;28;20815;-72
2021/01/27 13:27:49;;;;;;;9.80;4.33;;;7.50;99.90;;;;;;5028349;28;20219;-70
2021/01/27 13:30:18;;;;;;;9.10;4.30;;;7.50;99.90;;;;;;5030468;28;20226;-70
2021/01/27 13:32:45;;;;;;;8.43;4.20;;;7.60;99.90;;;;;;5023316;28;20224;-70
2021/01/27 13:35:12;;;;;;;9.00;4.40;;;7.70;99.90;;;;;;5033381;28;20201;-71
2021/01/27 13:37:38;;;;;;;7.63;3.40;;;7.80;99.90;;;;;;5032736;28;20216;-75
2021/01/27 13:40:06;;;;;;;8.33;3.70;;;7.80;99.90;;;;;;5034295;28;20231;-70
2021/01/27 13:42:32;;;;;;;10.53;4.53;;;7.80;99.90;;;;;;5034047;28;20205;-70
2021/01/27 13:44:58;;;;;;;10.53;4.33;;;7.60;99.90;;;;;;5034724;28;20208;-71
2021/01/27 13:47:26;;;;;;;11.83;4.27;;;7.70;99.90;;;;;;5034829;28;20683;-71
2021/01/27 13:49:52;;;;;;;9.07;3.87;;;7.80;99.90;;;;;;5034793;28;20229;-71
2021/01/27 13:52:19;;;;;;;11.33;4.40;;;7.80;99.90;;;;;;5034621;28;20235;-70
2021/01/27 13:54:45;;;;;;;11.27;4.20;;;7.90;99.90;;;;;;5034546;28;20205;-75
2021/01/27 13:57:11;;;;;;;8.73;3.87;;;8.00;99.90;;;;;;5034640;28;20208;-70
2021/01/27 13:59:37;;;;;;;13.37;4.83;;;8.00;99.90;;;;;;5034460;28;20224;-70
2021/01/27 14:02:03;;;;;;;8.30;3.80;;;7.90;99.90;;;;;;5034583;28;20205;-72
2021/01/27 14:04:31;;;;;;;8.57;3.87;;;7.90;99.90;;;;;;5034586;28;20231;-71
2021/01/27 14:06:57;;;;;;;9.50;4.23;;;8.00;99.90;;;;;;5033754;28;20227;-74
2021/01/27 14:09:23;;;;;;;12.43;4.20;;;8.00;99.90;;;;;;5034104;28;20707;-74
2021/01/27 14:11:49;;;;;;;10.37;4.50;;;8.10;99.90;;;;;;5034377;28;20706;-71
2021/01/27 14:14:15;;;;;;;15.50;4.27;;;8.10;99.90;;;;;;5033903;28;20220;-70
2021/01/27 14:16:42;;;;;;;11.97;4.50;;;7.90;99.90;;;;;;5034160;28;20212;-71
2021/01/27 14:19:08;;;;;;;10.80;4.87;;;8.00;99.90;;;;;;5034007;28;20220;-70
2021/01/27 14:21:35;;;;;;;13.00;4.43;;;8.10;99.90;;;;;;5033911;28;20725;-70
2021/01/27 14:24:01;;;;;;;14.70;4.83;;;8.10;99.90;;;;;;5034034;28;20675;-70
2021/01/27 14:26:27;;;;;;;9.80;4.20;;;8.10;99.90;;;;;;5034267;28;20205;-70
2021/01/27 14:28:54;;;;;;;16.23;4.60;;;8.20;99.90;;;;;;5033955;28;20311;-76
2021/01/27 14:31:20;;;;;;;8.80;4.53;;;8.30;99.90;;;;;;5033917;28;20228;-71
2021/01/27 14:33:46;;;;;;;11.67;4.10;;;8.40;99.90;;;;;;5033721;28;20672;-72
2021/01/27 14:36:12;;;;;;;10.63;4.77;;;8.30;99.90;;;;;;5033759;28;20208;-75
2021/01/27 14:38:39;;;;;;;12.77;4.70;;;8.30;99.90;;;;;;5034079;28;20274;-72
2021/01/27 14:41:05;;;;;;;12.07;4.67;;;8.30;99.90;;;;;;5033884;28;20229;-71
2021/01/27 14:43:32;;;;;;;9.93;4.27;;;8.20;99.90;;;;;;5033658;28;20263;-71
2021/01/27 14:45:58;;;;;;;13.20;4.77;;;8.30;99.90;;;;;;5033806;28;20205;-77
2021/01/27 14:48:25;;;;;;;10.50;4.67;;;8.20;99.90;;;;;;5033567;28;20226;-72
2021/01/27 14:50:51;;;;;;;11.07;4.50;;;8.20;99.90;;;;;;5033143;28;20237;-76
2021/01/27 14:53:17;;;;;;;12.23;4.63;;;8.20;99.90;;;;;;5033766;28;20205;-72
2021/01/27 14:55:45;;;;;;;13.67;4.77;;;8.30;99.90;;;;;;5033560;28;20209;-71
2021/01/27 14:58:11;;;;;;;9.07;4.50;;;8.40;99.90;;;;;;5033792;28;20215;-71
2021/01/27 15:00:38;;;;;;;14.30;5.57;;;8.30;99.90;;;;;;5033312;28;20256;-71
2021/01/27 15:03:05;;;;;;;13.03;4.80;;;8.30;99.90;;;;;;5033491;28;20227;-71
2021/01/27 15:05:31;;;;;;;10.27;4.40;;;8.30;99.90;;;;;;5033389;28;20208;-71
2021/01/27 15:07:57;;;;;;;12.03;5.00;;;8.20;99.90;;;;;;5033513;28;20205;-71
2021/01/27 15:10:27;;;;;;;10.77;5.07;;;8.10;99.90;;;;;;5033574;28;20236;-76
2021/01/27 15:12:54;;;;;;;14.00;5.43;;;7.90;99.90;;;;;;5033323;28;20216;-71
2021/01/27 15:15:21;;;;;;;12.07;5.10;;;7.80;99.90;;;;;;5033299;28;20209;-71
2021/01/27 15:17:48;;;;;;;13.93;5.07;;;7.80;99.90;;;;;;5033088;28;20205;-76
2021/01/27 15:20:17;;;;;;;10.17;5.40;;;7.70;99.90;;;;;;5031958;28;20221;-72
2021/01/27 15:22:43;;;;;;;14.00;4.40;;;7.70;99.90;;;;;;5033137;28;20579;-72
2021/01/27 15:25:11;;;;;;;12.53;5.10;;;7.60;99.90;;;;;;5032809;28;20213;-72
2021/01/27 15:27:38;;;;;;;12.97;5.67;;;7.60;99.90;;;;;;5032837;28;20208;-71
2021/01/27 15:30:07;;;;;;;14.63;5.63;;;7.50;99.90;;;;;;5032651;28;20236;-71
2021/01/27 15:32:33;;;;;;;12.40;5.03;;;7.50;99.90;;;;;;5032624;28;20232;-71
2021/01/27 15:35:00;;;;;;;11.70;5.03;;;7.50;99.90;;;;;;5033196;28;20205;-72
2021/01/27 15:37:26;;;;;;;12.77;4.90;;;7.50;99.90;;;;;;5033140;28;20201;-71
2021/01/27 15:39:52;;;;;;;14.77;5.47;;;7.50;99.90;;;;;;5032841;28;20622;-71
2021/01/27 15:42:19;;;;;;;13.47;4.83;;;7.50;99.90;;;;;;5032035;28;20258;-71
2021/01/27 15:44:45;;;;;;;12.10;5.43;;;7.50;99.90;;;;;;5020212;28;20197;-71
2021/01/27 15:47:13;;;;;;;13.93;4.90;;;7.60;99.90;;;;;;5019515;28;20209;-71
2021/01/27 15:49:39;;;;;;;10.83;5.07;;;7.60;99.90;;;;;;5010113;28;20225;-71
2021/01/27 15:52:05;;;;;;;16.07;6.17;;;7.50;99.90;;;;;;5011349;28;20233;-74
2021/01/27 15:54:32;;;;;;;12.13;4.73;;;7.40;99.90;;;;;;5012576;28;20213;-72
2021/01/27 15:56:59;;;;;;;11.67;5.10;;;7.40;99.90;;;;;;5013120;28;20209;-72
2021/01/27 15:59:25;;;;;;;12.20;5.20;;;7.30;99.90;;;;;;5012744;28;20708;-72
2021/01/27 16:01:51;;;;;;;14.23;5.00;;;7.40;99.90;;;;;;5013034;28;20205;-71
2021/01/27 16:04:19;;;;;;;11.00;5.37;;;7.40;99.90;;;;;;5013137;28;20216;-71
2021/01/27 16:06:45;;;;;;;13.33;5.40;;;7.50;99.90;;;;;;5013175;28;20210;-72
2021/01/27 16:09:13;;;;;;;11.83;4.67;;;7.50;99.90;;;;;;5013196;28;20232;-73
2021/01/27 16:11:40;;;;;;;11.73;5.10;;;7.50;99.90;;;;;;5012809;28;20287;-75
2021/01/27 16:14:06;;;;;;;13.50;4.93;;;7.50;99.90;;;;;;5012440;28;20217;-71
2021/01/27 16:16:34;;;;;;;12.37;4.50;;;7.60;99.90;;;;;;5012708;28;20730;-72
2021/01/27 16:19:00;;;;;;;9.53;4.53;;;7.60;99.90;;;;;;5012210;28;20613;-74
2021/01/27 16:21:27;;;;;;;13.33;5.33;;;7.60;99.90;;;;;;5012667;28;20210;-73
2021/01/27 16:23:54;;;;;;;11.43;4.60;;;7.70;99.90;;;;;;5012533;28;20206;-71
2021/01/27 16:26:20;;;;;;;11.93;5.47;;;7.60;99.90;;;;;;5012534;28;20206;-71
2021/01/27 16:28:47;;;;;;;17.73;5.50;;;7.50;99.90;;;;;;5012201;28;20294;-74
2021/01/27 16:31:13;;;;;;;12.27;4.70;;;7.50;99.90;;;;;;5014833;28;20230;-71
2021/01/27 16:33:40;;;;;;;15.80;6.00;;;7.50;99.90;;;;;;5020061;28;20576;-74
2021/01/27 16:36:06;;;;;;;11.93;5.47;;;7.50;99.90;;;;;;5024083;28;20202;-71
2021/01/27 16:38:33;;;;;;;12.77;5.63;;;7.40;99.90;;;;;;5030695;28;20667;-71
2021/01/27 16:41:00;;;;;;;17.13;6.20;;;7.40;99.90;;;;;;5026662;28;20604;-72
2021/01/27 16:43:26;;;;;;;11.70;5.27;;;7.40;99.90;;;;;;5027470;28;20201;-72
2021/01/27 16:45:54;;;;;;;12.47;6.27;;;7.40;99.90;;;;;;5033304;28;20690;-72
2021/01/27 16:48:21;;;;;;;14.20;5.73;;;7.50;99.90;;;;;;5032841;28;20213;-72
2021/01/27 16:50:48;;;;;;;12.53;6.10;;;7.50;99.90;;;;;;5026192;28;20229;-73
2021/01/27 16:53:14;;;;;;;15.00;5.97;;;7.40;99.90;;;;;;5032514;28;20201;-72
2021/01/27 16:55:41;;;;;;;12.43;5.23;;;7.40;99.90;;;;;;5033069;28;20690;-72
2021/01/27 16:58:09;;;;;;;16.47;5.80;;;7.50;99.90;;;;;;5026045;28;20205;-71
2021/01/27 17:00:36;;;;;;;13.13;5.60;;;7.50;99.90;;;;;;5029712;28;20221;-74
2021/01/27 17:03:03;;;;;;;15.50;5.93;;;7.40;99.90;;;;;;5032197;28;20209;-71
2021/01/27 17:05:32;;;;;;;13.53;5.83;;;7.50;99.90;;;;;;5027072;28;20663;-72
2021/01/27 17:07:58;;;;;;;13.40;5.30;;;7.50;99.90;;;;;;5027784;28;20204;-73
2021/01/27 17:10:25;;;;;;;18.00;5.67;;;7.50;99.90;;;;;;5026161;28;20279;-72
2021/01/27 17:12:52;;;;;;;12.93;5.50;;;7.50;99.90;;;;;;5034584;28;20765;-71
2021/01/27 17:15:19;;;;;;;16.63;6.23;;;7.40;99.90;;;;;;5033854;28;20211;-72
2021/01/27 17:17:45;;;;;;;13.67;5.77;;;7.40;99.90;;;;;;5034117;28;20255;-75
2021/01/27 17:20:13;;;;;;;16.87;6.67;;;7.40;99.90;;;;;;5035231;28;20224;-71
2021/01/27 17:22:39;;;;;;;12.90;5.80;;;7.50;99.90;;;;;;5035216;28;20220;-76
2021/01/27 17:25:07;;;;;;;13.97;5.67;;;7.50;99.90;;;;;;5035213;28;20213;-72
2021/01/27 17:27:35;;;;;;;17.80;5.93;;;7.50;99.90;;;;;;5034968;28;20201;-72
2021/01/27 17:30:03;;;;;;;15.50;6.70;;;7.60;99.90;;;;;;5035178;28;20231;-72
2021/01/27 17:32:30;;;;;;;14.60;5.73;;;7.70;99.90;;;;;;5035227;28;20233;-72
2021/01/27 17:34:56;;;;;;;12.87;5.23;;;7.70;99.90;;;;;;5035259;28;20201;-72
2021/01/27 17:37:22;;;;;;;14.93;6.53;;;7.70;99.90;;;;;;5034882;28;20216;-71
2021/01/27 17:39:48;;;;;;;13.83;6.40;;;7.70;99.90;;;;;;5034635;28;20228;-76
2021/01/27 17:42:15;;;;;;;14.63;5.70;;;7.60;99.90;;;;;;5033915;28;20204;-72
2021/01/27 17:44:42;;;;;;;12.73;5.70;;;7.60;99.90;;;;;;5034760;28;20209;-71
2021/01/27 17:47:09;;;;;;;12.93;5.53;;;7.60;99.90;;;;;;5035172;28;20209;-71
2021/01/27 17:49:35;;;;;;;12.47;5.03;;;7.70;99.90;;;;;;5034715;28;20225;-71
2021/01/27 17:52:01;;;;;;;17.37;5.40;;;7.60;99.90;;;;;;5034383;28;20233;-72
2021/01/27 17:54:27;;;;;;;12.77;5.33;;;7.60;99.90;;;;;;5034900;28;20266;-75
2021/01/27 17:56:54;;;;;;;17.00;5.57;;;7.60;99.90;;;;;;5034899;28;20638;-72
2021/01/27 17:59:20;;;;;;;12.53;5.47;;;7.50;99.90;;;;;;5034383;28;20588;-76
2021/01/27 18:01:46;;;;;;;15.60;5.73;;;7.50;99.90;;;;;;5034387;28;20204;-72
2021/01/27 18:04:13;;;;;;;13.90;5.37;;;7.50;99.90;;;;;;5034733;28;20259;-72
2021/01/27 18:06:39;;;;;;;14.67;5.50;;;7.50;99.90;;;;;;5034457;28;20201;-77
2021/01/27 18:09:06;;;;;;;12.63;5.53;;;7.50;99.90;;;;;;5034349;28;20579;-75
2021/01/27 18:11:32;;;;;;;12.97;5.47;;;7.50;99.90;;;;;;5034559;28;20225;-77
2021/01/27 18:13:59;;;;;;;12.47;5.53;;;7.50;99.90;;;;;;5034127;28;20224;-77
2021/01/27 18:16:25;;;;;;;15.30;5.93;;;7.50;99.90;;;;;;5034178;28;20213;-76
2021/01/27 18:18:52;;;;;;;12.80;5.13;;;7.50;99.90;;;;;;5034067;28;20208;-72
2021/01/27 18:21:21;;;;;;;12.43;4.97;;;7.50;99.90;;;;;;5034781;28;20607;-72
2021/01/27 18:23:48;;;;;;;11.67;5.27;;;7.40;99.90;;;;;;5034251;28;20251;-76
2021/01/27 18:26:15;;;;;;;13.17;5.83;;;7.40;99.90;;;;;;5033291;28;20659;-76
2021/01/27 18:28:42;;;;;;;14.40;5.43;;;7.50;99.90;;;;;;5044046;28;20204;-83
2021/01/27 18:31:08;;;;;;;13.47;5.23;;;7.60;99.90;;;;;;5040698;28;20315;-82
2021/01/27 18:33:35;;;;;;;14.87;5.80;;;7.50;99.90;;;;;;5047657;28;20215;-74
2021/01/27 18:36:02;;;;;;;10.10;4.60;;;7.50;99.90;;;;;;5054162;28;20219;-76
2021/01/27 18:38:29;;;;;;;16.97;6.43;;;7.60;99.90;;;;;;5053876;28;20261;-78
2021/01/27 18:40:59;;;;;;;16.60;5.00;;;7.60;99.90;;;;;;5053387;28;20228;-74
2021/01/27 18:43:27;;;;;;;12.30;5.20;;;7.50;99.90;;;;;;5053701;28;20237;-74
2021/01/27 18:45:56;;;;;;;13.13;5.43;;;7.60;99.90;;;;;;5054384;28;20237;-84
2021/01/27 18:48:24;;;;;;;14.73;5.40;;;7.70;99.90;;;;;;5054401;28;20291;-75
2021/01/27 18:50:51;;;;;;;12.10;4.60;;;7.70;99.90;;;;;;5053476;28;20224;-84
2021/01/27 18:53:20;;;;;;;12.33;4.80;;;7.60;99.90;;;;;;5053237;28;20212;-73
2021/01/27 18:55:47;;;;;;;16.07;4.80;;;7.50;99.90;;;;;;5053506;28;20204;-73
2021/01/27 18:58:13;;;;;;;15.27;5.33;;;7.70;99.90;;;;;;5053428;28;20204;-73
2021/01/27 19:00:40;;;;;;;12.07;4.93;;;7.80;99.90;;;;;;5053373;28;20239;-73
2021/01/27 19:03:07;;;;;;;10.83;4.07;;;7.80;99.90;;;;;;5053138;28;20208;-74
2021/01/27 19:05:33;;;;;;;13.03;5.10;;;7.90;99.90;;;;;;5053591;28;20282;-80
2021/01/27 19:08:00;;;;;;;13.80;5.23;;;7.90;99.90;;;;;;5017059;28;20209;-74
2021/01/27 19:10:29;;;;;;;14.63;5.07;;;8.00;99.90;;;;;;5014400;28;20229;-73
2021/01/27 19:12:56;;;;;;;14.57;5.00;;;8.00;99.90;;;;;;5028011;28;20240;-72
2021/01/27 19:15:25;;;;;;;12.17;4.80;;;7.90;99.90;;;;;;5019542;28;20201;-74
2021/01/27 19:17:52;;;;;;;14.13;5.10;;;7.90;99.90;;;;;;5016823;28;20237;-76
2021/01/27 19:20:19;;;;;;;12.50;4.67;;;7.90;99.90;;;;;;5020445;28;20225;-76
2021/01/27 19:22:45;;;;;;;14.17;4.87;;;7.90;99.90;;;;;;5029706;28;20283;-73
2021/01/27 19:25:14;;;;;;;13.93;4.87;;;7.90;99.90;;;;;;5016265;28;20644;-83
2021/01/27 19:27:41;;;;;;;13.33;4.33;;;7.90;99.90;;;;;;5019376;28;20205;-77
2021/01/27 19:30:11;;;;;;;12.23;4.50;;;7.90;99.90;;;;;;5020241;28;20228;-73
2021/01/27 19:32:37;;;;;;;13.63;4.73;;;7.90;99.90;;;;;;5019795;28;20230;-73
2021/01/27 19:35:05;;;;;;;10.43;4.23;;;7.90;99.90;;;;;;5018938;28;20344;-74
2021/01/27 19:37:31;;;;;;;13.57;4.70;;;8.00;99.90;;;;;;5023177;28;20204;-76
2021/01/27 19:40:00;;;;;;;13.93;4.83;;;8.00;99.90;;;;;;5030287;28;20231;-74
2021/01/27 19:42:27;;;;;;;17.57;5.03;;;8.00;99.90;;;;;;5030339;28;20209;-80
2021/01/27 19:44:53;;;;;;;14.60;4.97;;;8.10;99.90;;;;;;5029955;28;20254;-80
2021/01/27 19:47:20;;;;;;;10.17;4.27;;;8.20;99.90;;;;;;5028009;28;20212;-81
2021/01/27 19:49:47;;;;;;;13.50;4.63;;;8.20;99.90;;;;;;5010617;28;20233;-81
2021/01/27 19:52:13;;;;;;;9.20;3.97;;;8.30;99.90;;;;;;5010184;28;20229;-81
2021/01/27 19:54:40;;;;;;;14.90;4.70;;;8.40;99.90;;;;;;5010271;28;20300;-84
2021/01/27 19:57:08;;;;;;;14.77;5.53;;;8.30;99.90;;;;;;5010253;28;20209;-80
2021/01/27 19:59:35;;;;;;;9.87;4.17;;;8.30;99.90;;;;;;5009837;28;20229;-80
2021/01/27 20:02:01;;;;;;;12.13;4.47;;;8.30;99.90;;;;;;5018771;28;20212;-81
2021/01/27 20:04:28;;;;;;;15.43;4.47;;;8.20;99.90;;;;;;5029753;28;20211;-80
2021/01/27 20:06:54;;;;;;;11.77;4.63;;;8.20;99.90;;;;;;5032476;28;20286;-80
2021/01/27 20:09:21;;;;;;;11.90;4.53;;;8.20;99.90;;;;;;5033015;28;20233;-80
2021/01/27 20:11:47;;;;;;;13.20;4.07;;;8.30;99.90;;;;;;5032953;28;20237;-81
2021/01/27 20:14:13;;;;;;;13.07;4.67;;;8.20;99.90;;;;;;5033017;28;20224;-81
2021/01/27 20:16:39;;;;;;;12.30;3.97;;;8.30;99.90;;;;;;5033363;28;20220;-81
2021/01/27 20:19:06;;;;;;;13.57;4.80;;;8.20;99.90;;;;;;5033005;28;20228;-80
2021/01/27 20:21:33;;;;;;;9.93;4.00;;;8.40;99.90;;;;;;5033176;28;20216;-81
2021/01/27 20:23:59;;;;;;;9.70;4.73;;;8.30;99.90;;;;;;5033006;28;20208;-80
2021/01/27 20:26:25;;;;;;;13.37;4.67;;;8.30;99.90;;;;;;5033422;28;20213;-80
2021/01/27 20:28:51;;;;;;;9.33;4.37;;;8.30;99.90;;;;;;5033208;28;20209;-80
2021/01/27 20:31:18;;;;;;;10.53;4.57;;;8.20;99.90;;;;;;5032337;28;20227;-80
2021/01/27 20:33:44;;;;;;;12.73;4.77;;;8.30;99.90;;;;;;5033676;28;20536;-80
2021/01/27 20:36:10;;;;;;;11.37;4.50;;;8.10;99.90;;;;;;5033271;28;20212;-80
2021/01/27 20:38:38;;;;;;;16.37;4.90;;;8.10;99.90;;;;;;5033941;28;20212;-80
2021/01/27 20:41:07;;;;;;;12.57;4.33;;;8.10;99.90;;;;;;5033351;28;20307;-80
2021/01/27 20:43:34;;;;;;;12.50;3.77;;;8.00;99.90;;;;;;5033403;28;20232;-80
2021/01/27 20:46:01;;;;;;;12.53;4.90;;;8.00;99.90;;;;;;5033854;28;20204;-80
2021/01/27 20:48:28;;;;;;;12.43;4.03;;;7.90;99.90;;;;;;5033825;28;20212;-80
2021/01/27 20:50:55;;;;;;;7.90;3.90;;;7.80;99.90;;;;;;5033449;28;20225;-80
2021/01/27 20:53:24;;;;;;;9.57;3.67;;;7.90;99.90;;;;;;5033176;28;20232;-81
2021/01/27 20:55:52;;;;;;;12.07;3.83;;;8.00;99.90;;;;;;5034008;28;20288;-82
2021/01/27 20:58:19;;;;;;;11.07;4.10;;;7.90;99.90;;;;;;5033084;28;20258;-83
2021/01/27 21:00:47;;;;;;;13.60;3.70;;;7.90;99.90;;;;;;5033360;28;20231;-80
2021/01/27 21:03:14;;;;;;;10.90;4.07;;;7.90;99.90;;;;;;5033513;28;20571;-81
2021/01/27 21:05:40;;;;;;;10.47;3.90;;;7.90;99.90;;;;;;5033472;28;20209;-81
2021/01/27 21:08:07;;;;;;;9.97;3.37;;;7.80;99.90;;;;;;5033235;28;20213;-80
2021/01/27 21:10:36;;;;;;;10.33;3.80;;;7.90;99.90;;;;;;5033247;28;20236;-83
2021/01/27 21:13:03;;;;;;;11.13;4.27;;;7.90;99.90;;;;;;5033104;28;20742;-80
2021/01/27 21:15:31;;;;;;;11.27;3.70;;;7.90;99.90;;;;;;5033156;28;20209;-80
2021/01/27 21:17:59;;;;;;;12.70;3.93;;;8.00;99.90;;;;;;5033027;28;20228;-83
2021/01/27 21:20:26;;;;;;;12.43;4.00;;;8.00;99.90;;;;;;5032989;28;20229;-80
2021/01/27 21:22:53;;;;;;;13.03;4.30;;;8.10;99.90;;;;;;5033406;28;20347;-81
2021/01/27 21:25:22;;;;;;;11.37;3.80;;;8.10;99.90;;;;;;5033389;28;20200;-80
2021/01/27 21:27:49;;;;;;;11.33;4.20;;;8.10;99.90;;;;;;5033121;28;20201;-81
2021/01/27 21:30:17;;;;;;;10.37;3.67;;;8.10;99.90;;;;;;5032859;28;20228;-82
2021/01/27 21:32:43;;;;;;;10.50;4.13;;;8.00;99.90;;;;;;5032700;28;20586;-80
2021/01/27 21:35:10;;;;;;;9.87;4.30;;;8.00;99.90;;;;;;5032881;28;20213;-84
2021/01/27 21:37:37;;;;;;;12.87;4.50;;;8.10;99.90;;;;;;5033020;28;20209;-80
2021/01/27 21:40:07;;;;;;;11.20;4.07;;;8.20;99.90;;;;;;5032698;28;20240;-84
2021/01/27 21:42:33;;;;;;;8.37;3.43;;;8.20;99.90;;;;;;5032907;28;20351;-80
2021/01/27 21:44:59;;;;;;;10.47;4.10;;;8.10;99.90;;;;;;5032299;28;20208;-80
2021/01/27 21:47:26;;;;;;;10.87;3.93;;;8.10;99.90;;;;;;5033420;28;20201;-80
2021/01/27 21:49:53;;;;;;;8.63;3.70;;;8.10;99.90;;;;;;5052418;28;20738;-80
2021/01/27 21:52:19;;;;;;;10.40;4.03;;;8.20;99.90;;;;;;5052236;28;20445;-80
2021/01/27 21:54:45;;;;;;;7.87;3.37;;;8.20;99.90;;;;;;5052259;28;20250;-80
2021/01/27 21:57:12;;;;;;;7.73;3.40;;;8.20;99.90;;;;;;5052202;28;20212;-80
2021/01/27 21:59:38;;;;;;;8.77;2.97;;;8.20;99.90;;;;;;5012377;28;20233;-80
2021/01/27 22:02:04;;;;;;;6.03;2.67;;;8.20;99.90;;;;;;5012338;28;20221;-80
2021/01/27 22:04:31;;;;;;;7.90;3.07;;;8.20;99.90;;;;;;5012570;28;20217;-80
2021/01/27 22:06:57;;;;;;;6.67;2.83;;;8.20;99.90;;;;;;5012096;28;20641;-81
2021/01/27 22:09:24;;;;;;;4.23;2.43;;;8.20;99.90;;;;;;5012435;28;20245;-80
2021/01/27 22:11:50;;;;;;;9.73;2.93;;;8.30;99.90;;;;;;5012393;28;20232;-80
2021/01/27 22:14:16;;;;;;;5.70;2.67;;;8.20;99.90;;;;;;5012120;28;20295;-80
2021/01/27 22:16:42;;;;;;;6.37;2.83;;;8.30;99.90;;;;;;5012047;28;20213;-81
2021/01/27 22:19:09;;;;;;;5.67;2.90;;;8.30;99.90;;;;;;5012038;28;20574;-82
2021/01/27 22:21:36;;;;;;;6.53;2.73;;;8.30;99.90;;;;;;5012232;28;20215;-70
2021/01/27 22:24:02;;;;;;;5.57;2.53;;;8.30;99.90;;;;;;5028035;28;20204;-72
2021/01/27 22:26:28;;;;;;;5.83;2.93;;;8.20;99.90;;;;;;5013823;28;20202;-74
